KLBF

North Platte Regional Lee Bird Field Airport

North Platte, Nebraska, USA
METAR KLBF 210353Z AUTO 07006KT 10SM CLR 12/09 A3018 RMK AO2 SLP209 T01220094
Observed Flight Rules
Aug-21 @ 03:53 UTC (18 minutes ago) Visual Flight Rules
Wind Visibility Clouds
70° at 6 knots 10 miles
  • Clear skies
Temperatures Readings
Current 12°C / 54°F
Dewpoint 9°C / 48°F
Humidity 82%
Altimeter 30.18" Hg
Pressure 1020.9 hPa
Elevation 847
METAR KLBF 210353Z AUTO 07006KT 10SM CLR 12/09 A3018 RMK AO2 SLP209 T01220094
Observed Flight Rules
Aug-21 @ 03:53 UTC
(18 minutes ago)
VFR
Wind Visibility
70° at 6 knots 10 miles
Clouds
  • Clear skies
Temperature Dewpoint
12°C / 54°F 9°C / 48°F
Humidity Altimeter Pressure
82% 30.18" Hg 1020.9 hPa